• Join FlightAware (Why Join?)
  • Login
  • US Flag 
04:01AM EDT


 

Airport Tracker/Info


-or-


 

Live Flight TrackerFlight Track Log ✈ N182BP ✈ 03-Jul-2013 ✈ KALO - KEHR

Flight Track Log - Related Links

Times and Time Zones

All times are in EDT time to prevent confusion due to time zone crossing. See the N182BP flight status page for this flight to view local times or setup timezone preferences in your user account.

Time Position Orientation Groundspeed Altitude Reporting Facility
EDT Latitude Longitude Course Direction KTS MPH feet Rate Location/Type
10:19AM 42.5544 -92.3653 151° Southeast 93 107 2,500  Level Chicago Center
10:20AM 42.5344 -92.3436 141° Southeast 93 107 3,200 660 Climbing Chicago Center
10:21AM 42.5064 -92.3189 147° Southeast 97 112 3,900 600 Climbing Chicago Center
10:22AM 42.4836 -92.2969 145° Southeast 99 114 4,500 540 Climbing Chicago Center
10:23AM 42.3895 -92.2099 139° Southeast  Level FlightAware Approximate
10:23AM 42.4619 -92.2708 138° Southeast 102 117 5,100  Level Chicago Center
10:24AM 42.3619 -92.1798 151° Southeast  Level FlightAware Approximate
10:24AM 42.4406 -92.2444 138° Southeast 104 120 5,600  Level Chicago Center
10:25AM 42.4144 -92.2144 140° Southeast 104 120 6,200 480 Climbing Chicago Center
10:26AM 42.3939 -92.1881 137° Southeast 103 119 6,700 480 Climbing Chicago Center
10:27AM 42.3719 -92.1633 140° Southeast 103 119 7,300 480 Climbing Chicago Center
10:28AM 42.3472 -92.1394 144° Southeast 106 122 7,700 360 Climbing Chicago Center
10:29AM 42.3222 -92.1147 144° Southeast 109 125 8,100 420 Climbing Chicago Center
10:30AM 42.2939 -92.0825 140° Southeast 111 128 8,600 360 Climbing Chicago Center
10:31AM 42.2708 -92.0578 142° Southeast 110 127 8,900 120 Climbing Chicago Center
10:32AM 42.2433 -92.0283 142° Southeast 115 132 8,900  Level Chicago Center
10:33AM 42.2111 -91.9961 143° Southeast 128 147 8,900  Level Chicago Center
10:35AM 42.1750 -91.9612 144° Southeast  Level FlightAware Approximate
10:35AM 42.1439 -91.9294 144° Southeast 137 158 8,900  Level Chicago Center
10:36AM 42.1125 -91.9003 145° Southeast 137 158 8,900  Level Chicago Center
10:37AM 42.0850 -91.8672 138° Southeast 136 157 8,900  Level Chicago Center
10:38AM 42.0575 -91.8344 138° Southeast 135 155 8,900  Level Chicago Center
10:39AM 42.0236 -91.7925 137° Southeast 138 159 8,900  Level Chicago Center
10:40AM 41.9967 -91.7581 136° Southeast 136 157 8,900  Level Chicago Center
10:42AM 41.9700 -91.7244 137° Southeast 134 154 8,900  Level Chicago Center
10:43AM 41.9431 -91.6900 136° Southeast 134 154 8,900  Level Chicago Center
10:44AM 41.9158 -91.6589 140° Southeast 132 152 8,900  Level Chicago Center
10:45AM 41.8744 -91.6372 159° South 133 153 8,900  Level Chicago Center
10:46AM 41.8408 -91.6147 153° Southeast 135 155 8,900  Level Chicago Center
10:47AM 41.8142 -91.5822 138° Southeast 132 152 8,900  Level Chicago Center
10:48AM 41.7867 -91.5511 140° Southeast 130 150 8,900  Level Chicago Center
10:49AM 41.7583 -91.5197 140° Southeast 133 153 8,900  Level Chicago Center
10:50AM 41.7228 -91.4828 142° Southeast 135 155 8,900  Level Chicago Center
10:51AM 41.6939 -91.4508 140° Southeast 137 158 8,900  Level Chicago Center
10:52AM 41.6644 -91.4217 143° Southeast 135 155 8,900  Level Chicago Center
10:53AM 41.6347 -91.3897 141° Southeast 137 158 8,900  Level Chicago Center
10:54AM 41.6056 -91.3603 143° Southeast 134 154 8,900  Level Chicago Center
10:55AM 41.5711 -91.3219 140° Southeast 135 155 9,000  Climbing Chicago Center
10:56AM 41.5408 -91.2919 143° Southeast 137 158 9,000  Level Chicago Center
10:57AM 41.5117 -91.2625 143° Southeast 135 155 9,000  Level Chicago Center
10:58AM 41.4817 -91.2331 144° Southeast 134 154 9,000  Level Chicago Center
10:59AM 41.4475 -91.1947 140° Southeast 134 154 9,000  Level Chicago Center
11:00AM 41.4175 -91.1647 143° Southeast 135 155 9,000 -60 Level Chicago Center
11:01AM 41.3878 -91.1333 142° Southeast 137 158 8,900 -60 Descending Chicago Center
11:02AM 41.3564 -91.1033 144° Southeast 137 158 8,900  Level Chicago Center
11:03AM 41.3267 -91.0717 141° Southeast 138 159 8,900  Level Chicago Center
11:04AM 41.2967 -91.0389 141° Southeast 138 159 8,900  Level Chicago Center
11:05AM 41.2600 -91.0011 142° Southeast 139 160 8,900  Level Chicago Center
11:06AM 41.2278 -90.9714 145° Southeast 140 161 9,000  Climbing Chicago Center
11:07AM 41.1981 -90.9394 141° Southeast 140 161 8,900 -60 Descending Chicago Center
11:08AM 41.1681 -90.9083 142° Southeast 138 159 8,900  Level Chicago Center
11:09AM 41.1364 -90.8775 144° Southeast 140 161 8,900  Level Chicago Center
11:11AM 41.1058 -90.8464 143° Southeast 139 160 8,900  Level Chicago Center
11:12AM 41.0686 -90.8081 142° Southeast 140 161 8,900  Level Chicago Center
11:13AM 41.0381 -90.7772 143° Southeast 139 160 8,900  Level Chicago Center
11:14AM 41.0072 -90.7456 142° Southeast 140 161 8,900  Level Chicago Center
11:15AM 40.9756 -90.7144 143° Southeast 141 162 9,000  Climbing Chicago Center
11:16AM 40.9453 -90.6836 142° Southeast 138 159 9,000  Level Chicago Center
11:17AM 40.9153 -90.6522 142° Southeast 138 159 9,000  Level Chicago Center
11:18AM 40.8831 -90.6203 143° Southeast 143 165 9,000  Level Chicago Center
11:19AM 40.8472 -90.5844 143° Southeast 137 158 9,000  Level Chicago Center
11:20AM 40.8158 -90.5525 142° Southeast 140 161 9,000  Level Chicago Center
11:21AM 40.7856 -90.5225 143° Southeast 138 159 9,000  Level Chicago Center
11:22AM 40.7547 -90.4917 143° Southeast 139 160 9,000  Level Chicago Center
11:23AM 40.7242 -90.4617 143° Southeast 138 159 9,000  Level Chicago Center
11:24AM 40.6928 -90.4294 142° Southeast 141 162 9,000  Level Chicago Center
11:25AM 40.6633 -90.3978 141° Southeast 139 160 9,000  Level Chicago Center
11:26AM 40.6253 -90.3625 145° Southeast 140 161 9,000  Level Chicago Center
11:27AM 40.5950 -90.3314 142° Southeast 139 160 9,000  Level Chicago Center
11:28AM 40.5647 -90.3011 143° Southeast 138 159 9,000  Level Chicago Center
11:29AM 40.5339 -90.2697 142° Southeast 140 161 9,000 -60 Level Chicago Center
11:30AM 40.5019 -90.2400 145° Southeast 141 162 8,900 -60 Descending Chicago Center
11:31AM 40.4725 -90.2092 141° Southeast 138 159 8,900  Level Chicago Center
11:32AM 40.4356 -90.1731 143° Southeast 138 159 8,900  Level Chicago Center
11:33AM 40.4056 -90.1425 142° Southeast 137 158 8,900  Level Chicago Center
11:34AM 40.3750 -90.1128 143° Southeast 137 158 8,900  Level Chicago Center
11:35AM 40.3508 -90.0875 141° Southeast 138 159 9,000  Climbing Kansas City Center
11:36AM 40.3203 -90.0578 143° Southeast 138 159 9,000  Level Kansas City Center
11:37AM 40.2892 -90.0286 144° Southeast 137 158 9,000  Level Kansas City Center
11:38AM 40.2528 -89.9917 142° Southeast 138 159 9,000  Level Kansas City Center
11:39AM 40.2231 -89.9622 143° Southeast 136 157 9,000  Level Kansas City Center
11:40AM 40.1925 -89.9328 144° Southeast 136 157 9,000  Level Kansas City Center
11:41AM 40.1622 -89.9028 143° Southeast 136 157 9,000  Level Kansas City Center
11:42AM 40.1322 -89.8725 142° Southeast 137 158 9,000  Level Kansas City Center
11:43AM 40.1019 -89.8431 143° Southeast 136 157 9,000  Level Kansas City Center
11:44AM 40.0644 -89.8072 144° Southeast 138 159 9,000  Level Kansas City Center
11:45AM 40.0339 -89.7756 142° Southeast 139 160 9,000  Level Kansas City Center
11:46AM 40.0042 -89.7481 145° Southeast 136 157 9,000  Level Kansas City Center
11:47AM 39.9750 -89.7178 141° Southeast 133 153 9,000  Level Kansas City Center
11:48AM 39.9458 -89.6900 144° Southeast 132 152 9,000  Level Kansas City Center
11:50AM 39.9153 -89.6611 144° Southeast 134 154 9,000  Level Kansas City Center
11:51AM 39.8800 -89.6253 142° Southeast 134 154 9,000  Level Kansas City Center
11:52AM 39.8508 -89.5975 144° Southeast 132 152 9,000  Level Kansas City Center
11:53AM 39.8211 -89.5692 144° Southeast 132 152 9,000  Level Kansas City Center
11:54AM 39.7917 -89.5400 143° Southeast 134 154 9,000  Level Kansas City Center
11:55AM 39.7625 -89.5119 144° Southeast 132 152 9,000  Level Kansas City Center
11:56AM 39.7331 -89.4825 142° Southeast 132 152 9,000  Level Kansas City Center
11:57AM 39.7019 -89.4533 144° Southeast 132 152 9,000  Level Kansas City Center
11:58AM 39.6675 -89.4192 143° Southeast 130 150 9,000  Level Kansas City Center
11:59AM 39.6378 -89.3919 145° Southeast 131 151 9,000  Level Kansas City Center
12:00PM 39.6092 -89.3650 144° Southeast 129 148 9,000  Level Kansas City Center
12:01PM 39.5792 -89.3364 144° Southeast 131 151 9,000  Level Kansas City Center
12:02PM 39.5494 -89.3069 143° Southeast 134 154 9,000  Level Kansas City Center
12:03PM 39.5194 -89.2781 143° Southeast 134 154 9,000  Level Kansas City Center
12:04PM 39.4856 -89.2464 144° Southeast 131 151 9,000  Level Kansas City Center
12:05PM 39.4558 -89.2175 143° Southeast 132 152 9,000  Level Kansas City Center
12:06PM 39.4267 -89.1894 143° Southeast 132 152 9,000  Level Kansas City Center
12:07PM 39.3958 -89.1594 143° Southeast 131 151 9,000  Level Kansas City Center
12:08PM 39.3664 -89.1314 144° Southeast 132 152 9,000  Level Kansas City Center
12:09PM 39.3369 -89.1036 144° Southeast 131 151 9,000  Level Kansas City Center
12:10PM 39.3019 -89.0700 143° Southeast 131 151 9,000  Level Kansas City Center
12:11PM 39.2719 -89.0408 143° Southeast 133 153 9,000  Level Kansas City Center
12:12PM 39.2422 -89.0142 145° Southeast 132 152 9,000  Level Kansas City Center
12:13PM 39.2131 -88.9872 144° Southeast 130 150 9,000  Level Kansas City Center
12:14PM 39.1836 -88.9594 144° Southeast 131 151 9,000  Level Kansas City Center
12:15PM 39.1569 -88.9311 141° Southeast 126 145 9,000  Level Kansas City Center
12:16PM 39.1197 -88.8992 146° Southeast 132 152 9,000  Level Kansas City Center
12:17PM 39.0908 -88.8703 142° Southeast 133 153 9,000  Level Kansas City Center
12:18PM 39.0606 -88.8417 144° Southeast 134 154 9,000  Level Kansas City Center
12:20PM 39.0311 -88.8139 144° Southeast 132 152 9,000  Level Kansas City Center
12:21PM 39.0011 -88.7856 144° Southeast 133 153 9,000  Level Kansas City Center
12:22PM 38.9703 -88.7578 145° Southeast 135 155 9,000  Level Kansas City Center
12:23PM 38.9356 -88.7233 142° Southeast 133 153 9,000  Level Kansas City Center
12:24PM 38.9061 -88.6961 144° Southeast 132 152 9,000  Level Kansas City Center
12:25PM 38.8750 -88.6675 144° Southeast 135 155 9,000  Level Kansas City Center
12:26PM 38.8458 -88.6403 144° Southeast 131 151 9,000  Level Kansas City Center
12:27PM 38.8169 -88.6131 144° Southeast 130 150 9,000  Level Kansas City Center
12:28PM 38.7875 -88.5853 144° Southeast 131 151 9,000  Level Kansas City Center
12:29PM 38.7494 -88.5522 146° Southeast 133 153 9,000  Level Kansas City Center
12:30PM 38.7206 -88.5261 145° Southeast 131 151 9,000  Level Kansas City Center
12:31PM 38.6925 -88.4989 143° Southeast 129 148 9,000  Level Kansas City Center
12:32PM 38.6644 -88.4711 142° Southeast 129 148 9,000  Level Kansas City Center
12:33PM 38.6356 -88.4458 146° Southeast 127 146 9,000  Level Kansas City Center
12:34PM 38.6078 -88.4189 143° Southeast 126 145 9,000  Level Kansas City Center
12:35PM 38.5725 -88.3867 144° Southeast 127 146 9,000  Level Kansas City Center
12:36PM 38.5453 -88.3597 142° Southeast 125 144 9,000  Level Kansas City Center
12:37PM 38.5172 -88.3333 144° Southeast 124 143 9,000  Level Kansas City Center
12:38PM 38.4886 -88.3067 144° Southeast 126 145 9,000  Level Kansas City Center
12:39PM 38.4611 -88.2814 144° Southeast 124 143 9,000  Level Kansas City Center
12:40PM 38.4300 -88.2550 146° Southeast 129 148 9,000  Level Kansas City Center
12:41PM 38.3986 -88.2281 146° Southeast 134 154 9,000 -60 Level Kansas City Center
12:42PM 38.3639 -88.1958 144° Southeast 131 151 8,900 -300 Descending Kansas City Center
12:43PM 38.3317 -88.1675 145° Southeast 136 157 8,500 -480 Descending Kansas City Center
12:44PM 38.3017 -88.1367 141° Southeast 138 159 8,000 -480 Descending Kansas City Center
12:45PM 38.2678 -88.1072 146° Southeast 143 165 7,600 -480 Descending Kansas City Center
12:46PM 38.2353 -88.0786 145° Southeast 143 165 7,100 -480 Descending Kansas City Center
12:47PM 38.2047 -88.0472 141° Southeast 142 163 6,600 -480 Descending Kansas City Center
12:48PM 38.1728 -88.0189 145° Southeast 141 162 6,100 -540 Descending Kansas City Center
12:50PM 38.1336 -87.9831 144° Southeast 142 163 5,600 -540 Descending Kansas City Center
12:51PM 38.1017 -87.9536 144° Southeast 142 163 5,100 -540 Descending Kansas City Center
12:52PM 38.0658 -87.9208 144° Southeast 144 166 4,500 -480 Descending Indianapolis Center
12:53PM 38.0358 -87.8914 142° Southeast 142 163 4,100 -360 Descending Indianapolis Center
12:54PM 38.0061 -87.8653 145° Southeast 134 154 3,800 -420 Descending Indianapolis Center
12:55PM 37.9758 -87.8400 147° Southeast 131 151 3,300 -540 Descending Indianapolis Center
12:56PM 37.9461 -87.8136 145° Southeast 130 150 2,800 -540 Descending Indianapolis Center
12:57PM 37.9106 -87.7797 143° Southeast 132 152 2,300 -300 Descending Indianapolis Center
12:58PM 37.8828 -87.7533 143° Southeast 132 152 2,200 -120 Descending Indianapolis Center